createdAt,value
2022-11-05T00:02:05.253Z,91.33
2022-11-05T00:04:53.080Z,91.33
2022-11-05T00:07:47.675Z,91.22
2022-11-05T00:10:21.799Z,91.34
2022-11-05T00:13:10.493Z,91.36
2022-11-05T00:16:00.916Z,91.37
2022-11-05T00:18:30.309Z,91.38
2022-11-05T00:20:59.036Z,91.41
2022-11-05T00:23:46.547Z,91.63
2022-11-05T00:26:16.141Z,91.69
2022-11-05T00:28:45.629Z,91.85
2022-11-05T00:31:14.506Z,91.99
2022-11-05T00:33:45.097Z,92.08
2022-11-05T00:36:14.642Z,91.98
2022-11-05T00:38:43.800Z,91.94
2022-11-05T00:41:12.732Z,91.88
2022-11-05T00:44:00.486Z,91.81
2022-11-05T00:46:31.844Z,91.90
2022-11-05T00:49:19.829Z,91.96
2022-11-05T00:51:50.460Z,92.02
2022-11-05T00:54:20.334Z,91.94
2022-11-05T00:56:49.235Z,91.85
2022-11-05T00:59:19.633Z,91.88
2022-11-05T01:01:49.010Z,91.85
2022-11-05T01:04:17.892Z,91.75
2022-11-05T01:06:47.979Z,91.74
2022-11-05T01:09:18.313Z,91.87
2022-11-05T01:11:47.842Z,91.99
2022-11-05T01:14:17.007Z,92.00
2022-11-05T01:16:46.889Z,91.96
2022-11-05T01:19:15.695Z,91.98
2022-11-05T01:21:45.909Z,92.21
2022-11-05T01:24:15.530Z,92.43
2022-11-05T01:26:45.446Z,92.69
2022-11-05T01:29:14.052Z,92.85
2022-11-05T01:31:43.674Z,93.10
2022-11-05T01:34:13.139Z,93.30
2022-11-05T01:36:41.909Z,93.46
2022-11-05T01:39:10.686Z,93.58
2022-11-05T01:41:40.381Z,93.65
2022-11-05T01:44:52.009Z,93.70
2022-11-05T01:47:29.818Z,93.80
2022-11-05T01:50:04.212Z,93.83
2022-11-05T01:52:33.648Z,93.89
2022-11-05T01:55:06.794Z,93.95
2022-11-05T01:57:35.924Z,93.97
2022-11-05T02:00:07.152Z,93.81
2022-11-05T02:02:39.903Z,93.83
2022-11-05T02:05:11.428Z,93.75
2022-11-05T02:07:40.935Z,93.65
2022-11-05T02:10:13.913Z,93.65
2022-11-05T02:12:47.473Z,93.69
2022-11-05T02:15:48.781Z,93.68
2022-11-05T02:18:38.228Z,93.73
2022-11-05T02:21:27.534Z,93.76
2022-11-05T02:24:32.189Z,93.72
2022-11-05T02:27:16.361Z,93.60
2022-11-05T02:30:05.435Z,93.60
2022-11-05T02:33:00.594Z,93.39
2022-11-05T02:35:54.956Z,93.37
2022-11-05T02:38:41.965Z,93.40
2022-11-05T02:41:50.323Z,93.35
2022-11-05T02:44:33.871Z,93.43
2022-11-05T02:47:54.037Z,93.37
2022-11-05T02:50:40.012Z,93.25
2022-11-05T02:53:16.687Z,93.23
2022-11-05T02:55:58.498Z,93.24
2022-11-05T02:58:30.746Z,93.30
2022-11-05T03:01:02.949Z,93.46
2022-11-05T03:03:47.554Z,93.48
2022-11-05T03:06:54.041Z,93.52
2022-11-05T03:09:32.231Z,93.66
2022-11-05T03:12:23.160Z,93.81
2022-11-05T03:15:33.626Z,93.89
2022-11-05T03:18:22.786Z,93.98
2022-11-05T03:21:02.930Z,94.12
2022-11-05T03:23:46.852Z,94.08
2022-11-05T03:26:35.932Z,94.28
2022-11-05T03:29:09.725Z,94.21
2022-11-05T03:31:39.505Z,94.32
2022-11-05T03:34:08.580Z,94.33
2022-11-05T03:36:41.893Z,94.26
2022-11-05T03:39:15.831Z,94.25
2022-11-05T03:41:45.327Z,94.25
2022-11-05T03:44:15.828Z,94.31
2022-11-05T03:46:49.894Z,94.34
2022-11-05T03:49:32.523Z,94.37
2022-11-05T03:52:19.828Z,94.37
2022-11-05T03:54:49.687Z,94.44
2022-11-05T03:57:25.926Z,94.48
2022-11-05T03:59:55.832Z,94.51
2022-11-05T04:02:26.219Z,94.71
2022-11-05T04:04:56.615Z,94.79
2022-11-05T04:07:45.183Z,95.03
2022-11-05T04:10:32.970Z,95.25
2022-11-05T04:13:21.625Z,95.38
2022-11-05T04:16:10.965Z,95.80
2022-11-05T04:18:39.990Z,96.24
2022-11-05T04:21:28.070Z,96.65
2022-11-05T04:24:09.649Z,96.84
2022-11-05T04:26:41.321Z,97.10
2022-11-05T04:29:29.131Z,97.23
2022-11-05T04:31:59.409Z,97.46
2022-11-05T04:34:30.179Z,97.58
2022-11-05T04:37:00.795Z,97.56
2022-11-05T04:39:29.568Z,97.56
2022-11-05T04:41:59.677Z,97.59
2022-11-05T04:44:28.707Z,97.66
2022-11-05T04:46:58.188Z,97.63
2022-11-05T04:49:30.215Z,97.49
2022-11-05T04:51:59.082Z,97.31
2022-11-05T04:54:28.068Z,97.21
2022-11-05T04:56:58.301Z,97.22
2022-11-05T04:59:27.241Z,97.16
2022-11-05T05:01:56.994Z,97.13
2022-11-05T05:04:26.233Z,96.98
2022-11-05T05:06:56.038Z,96.92
2022-11-05T05:09:24.954Z,96.91
2022-11-05T05:11:53.699Z,96.86
2022-11-05T05:14:22.828Z,96.93
2022-11-05T05:16:53.300Z,96.94
2022-11-05T05:19:25.919Z,97.03
2022-11-05T05:21:56.063Z,97.01
2022-11-05T05:24:25.211Z,97.01
2022-11-05T05:26:54.933Z,96.88
2022-11-05T05:29:25.956Z,96.89
2022-11-05T05:31:54.951Z,96.88
2022-11-05T05:34:24.226Z,97.15
2022-11-05T05:36:53.930Z,97.32
2022-11-05T05:39:24.264Z,97.32
2022-11-05T05:41:54.753Z,97.23
2022-11-05T05:44:23.693Z,97.30
2022-11-05T05:46:55.593Z,97.39
2022-11-05T05:49:24.515Z,97.52
2022-11-05T05:51:53.763Z,97.55
2022-11-05T05:54:26.397Z,97.59
2022-11-05T05:56:54.757Z,97.65
2022-11-05T05:59:23.874Z,97.80
2022-11-05T06:01:52.874Z,97.93
2022-11-05T06:04:22.777Z,97.96
2022-11-05T06:06:53.082Z,97.98
2022-11-05T06:09:21.777Z,97.94
2022-11-05T06:11:50.988Z,97.94
2022-11-05T06:14:20.188Z,97.80
2022-11-05T06:16:51.330Z,97.63
2022-11-05T06:19:21.061Z,97.55
2022-11-05T06:21:49.681Z,97.40
2022-11-05T06:24:18.371Z,97.24
2022-11-05T06:26:48.838Z,97.17
2022-11-05T06:29:18.347Z,97.14
2022-11-05T06:31:49.342Z,97.18
2022-11-05T06:34:19.638Z,97.16
2022-11-05T06:36:48.658Z,97.02
2022-11-05T06:39:18.457Z,97.04
2022-11-05T06:44:19.336Z,97.14
2022-11-05T06:46:49.575Z,97.31
2022-11-05T06:49:18.608Z,97.36
2022-11-05T06:51:47.426Z,97.47
2022-11-05T06:54:16.744Z,97.67
2022-11-05T06:56:46.874Z,97.62
2022-11-05T06:59:16.862Z,97.67
2022-11-05T07:01:47.123Z,97.76
2022-11-05T07:04:16.899Z,97.79
2022-11-05T07:06:48.253Z,97.65
2022-11-05T07:09:18.457Z,97.52
2022-11-05T07:11:47.937Z,97.32
2022-11-05T07:14:17.476Z,97.21
2022-11-05T07:16:46.994Z,97.07
2022-11-05T07:19:16.180Z,96.85
2022-11-05T07:21:45.693Z,96.75
2022-11-05T07:24:15.903Z,96.68
2022-11-05T07:26:44.642Z,96.52
2022-11-05T07:29:14.615Z,96.51
2022-11-05T07:31:43.879Z,96.51
2022-11-05T07:34:13.243Z,96.48
2022-11-05T07:36:41.902Z,96.50
2022-11-05T07:39:11.710Z,96.24
2022-11-05T07:41:40.353Z,96.21
2022-11-05T07:44:11.471Z,96.13
2022-11-05T07:46:42.188Z,96.02
2022-11-05T07:49:11.481Z,95.99
2022-11-05T07:51:40.530Z,95.94
2022-11-05T07:54:11.894Z,96.00
2022-11-05T07:56:41.978Z,95.98
2022-11-05T07:59:11.447Z,95.80
2022-11-05T08:01:40.435Z,95.83
2022-11-05T08:04:09.493Z,95.77
2022-11-05T08:06:40.370Z,95.71
2022-11-05T08:09:11.536Z,95.76
2022-11-05T08:11:41.287Z,95.94
2022-11-05T08:14:10.111Z,96.03
2022-11-05T08:16:39.337Z,95.91
2022-11-05T08:19:12.661Z,95.87
2022-11-05T08:21:42.664Z,95.86
2022-11-05T08:24:11.880Z,95.77
2022-11-05T08:26:41.076Z,95.72
2022-11-05T08:29:10.705Z,95.73
2022-11-05T08:31:39.965Z,95.66
2022-11-05T08:34:09.277Z,95.67
2022-11-05T08:36:40.972Z,95.81
2022-11-05T08:39:15.847Z,95.74
2022-11-05T08:41:42.102Z,95.31
2022-11-05T08:44:12.621Z,95.04
2022-11-05T08:46:41.905Z,95.06
2022-11-05T08:49:11.854Z,95.14
2022-11-05T08:51:44.748Z,95.33
2022-11-05T08:54:14.324Z,95.27
2022-11-05T08:56:45.447Z,95.36
2022-11-05T08:59:15.015Z,95.65
2022-11-05T09:01:45.006Z,95.63
2022-11-05T09:04:14.047Z,95.80
2022-11-05T09:06:42.959Z,95.99
2022-11-05T09:09:13.365Z,95.99
2022-11-05T09:12:10.492Z,96.12
2022-11-05T09:14:15.449Z,96.34
2022-11-05T09:16:44.218Z,96.20
2022-11-05T09:19:14.019Z,96.26
2022-11-05T09:21:43.731Z,96.13
2022-11-05T09:24:12.780Z,95.79
2022-11-05T09:26:43.030Z,95.82
2022-11-05T09:29:14.512Z,96.01
2022-11-05T09:31:42.747Z,96.00
2022-11-05T09:34:12.290Z,96.02
2022-11-05T09:36:42.550Z,96.01
2022-11-05T09:39:14.661Z,96.04
2022-11-05T09:41:44.370Z,96.26
2022-11-05T09:44:20.316Z,96.20
2022-11-05T09:46:59.964Z,96.32
2022-11-05T09:49:39.745Z,96.33
2022-11-05T09:52:30.684Z,96.43
2022-11-05T09:55:00.645Z,96.54
2022-11-05T09:57:47.189Z,96.54
2022-11-05T10:00:17.141Z,96.53
2022-11-05T10:02:59.627Z,96.54
2022-11-05T10:05:28.928Z,96.41
2022-11-05T10:08:09.930Z,96.68
2022-11-05T10:10:46.050Z,96.62
2022-11-05T10:13:37.262Z,96.58
2022-11-05T10:16:30.507Z,96.52
2022-11-05T10:19:19.254Z,96.42
2022-11-05T10:24:20.784Z,96.18
2022-11-05T10:26:53.697Z,96.20
2022-11-05T10:29:29.580Z,96.21
2022-11-05T10:31:59.145Z,96.05
2022-11-05T10:34:32.757Z,95.86
2022-11-05T10:37:02.277Z,95.86
2022-11-05T10:39:32.527Z,95.89
2022-11-05T10:42:26.655Z,95.94
2022-11-05T10:45:20.487Z,95.97
2022-11-05T10:48:07.610Z,95.92
2022-11-05T10:50:36.726Z,95.80
2022-11-05T10:53:15.466Z,95.83
2022-11-05T10:55:49.695Z,95.98
2022-11-05T10:58:38.781Z,96.02
2022-11-05T11:01:11.775Z,95.94
2022-11-05T11:03:52.790Z,95.95
2022-11-05T11:06:27.763Z,96.13
2022-11-05T11:09:02.068Z,96.21
2022-11-05T11:11:41.790Z,96.08
2022-11-05T11:14:17.742Z,95.89
2022-11-05T11:16:50.141Z,95.84
2022-11-05T11:19:36.088Z,95.55
2022-11-05T11:22:11.136Z,95.44
2022-11-05T11:24:53.319Z,95.49
2022-11-05T11:27:28.965Z,95.50
2022-11-05T11:30:03.921Z,95.39
2022-11-05T11:32:36.508Z,95.34
2022-11-05T11:35:13.480Z,95.24
2022-11-05T11:37:48.071Z,95.11
2022-11-05T11:40:21.590Z,95.09
2022-11-05T11:42:55.731Z,95.10
2022-11-05T11:45:35.473Z,94.97
2022-11-05T11:48:10.097Z,94.89
2022-11-05T11:50:42.719Z,94.72
2022-11-05T11:53:33.458Z,94.69
2022-11-05T11:56:08.983Z,94.76
2022-11-05T11:58:45.947Z,94.66
2022-11-05T12:01:47.964Z,94.47
2022-11-05T12:04:36.347Z,94.49
2022-11-05T12:07:19.083Z,94.45
2022-11-05T12:10:13.661Z,94.39
2022-11-05T12:13:00.246Z,94.29
2022-11-05T12:15:57.658Z,94.12
2022-11-05T12:18:49.757Z,94.07
2022-11-05T12:21:52.145Z,94.03
2022-11-05T12:24:21.377Z,93.77
2022-11-05T12:27:11.072Z,93.62
2022-11-05T12:29:55.132Z,93.55
2022-11-05T12:32:38.191Z,93.51
2022-11-05T12:35:36.724Z,93.69
2022-11-05T12:38:23.042Z,93.69
2022-11-05T12:41:27.227Z,93.70
2022-11-05T12:44:26.970Z,93.39
2022-11-05T12:47:22.640Z,93.12
2022-11-05T12:50:13.192Z,92.96
2022-11-05T12:52:55.280Z,92.94
2022-11-05T12:55:31.031Z,93.00
2022-11-05T12:58:11.100Z,92.93
2022-11-05T13:00:44.265Z,92.90
2022-11-05T13:03:21.471Z,92.77
2022-11-05T13:06:00.273Z,92.66
2022-11-05T13:09:04.255Z,92.55
2022-11-05T13:11:54.054Z,92.46
2022-11-05T13:14:47.253Z,92.38
2022-11-05T13:17:29.541Z,92.44
2022-11-05T13:20:17.498Z,92.45
2022-11-05T13:22:51.666Z,92.47
2022-11-05T13:25:28.569Z,92.45
2022-11-05T13:28:21.077Z,92.32
2022-11-05T13:30:56.412Z,92.04
2022-11-05T13:33:36.136Z,92.09
2022-11-05T13:36:35.371Z,92.03
2022-11-05T13:39:18.575Z,92.18
2022-11-05T13:42:16.095Z,92.01
2022-11-05T13:44:57.645Z,91.68
2022-11-05T13:48:07.623Z,91.63
2022-11-05T13:51:13.316Z,91.66
2022-11-05T13:54:19.105Z,91.66
2022-11-05T13:57:05.555Z,91.60
2022-11-05T13:59:46.026Z,91.43
2022-11-05T14:02:25.647Z,91.50
2022-11-05T14:05:01.036Z,91.46
2022-11-05T14:07:34.370Z,91.50
2022-11-05T14:10:30.670Z,91.40
2022-11-05T14:13:06.024Z,91.31
2022-11-05T14:15:35.540Z,91.32
2022-11-05T14:18:41.002Z,91.63
2022-11-05T14:21:36.056Z,91.63
2022-11-05T14:24:30.097Z,91.75
2022-11-05T14:27:06.747Z,91.53
2022-11-05T14:29:47.226Z,91.72
2022-11-05T14:32:24.240Z,91.93
2022-11-05T14:35:21.576Z,91.93
2022-11-05T14:37:58.805Z,91.91
2022-11-05T14:40:44.010Z,92.06
2022-11-05T14:43:20.542Z,92.05
2022-11-05T14:46:00.459Z,92.03
2022-11-05T14:48:56.336Z,92.14
2022-11-05T14:51:42.398Z,92.18
2022-11-05T14:54:31.425Z,91.99
2022-11-05T14:57:02.230Z,91.91
2022-11-05T14:59:35.135Z,91.91
2022-11-05T15:02:30.389Z,91.95
2022-11-05T15:05:50.994Z,91.99
2022-11-05T15:08:40.767Z,91.91
2022-11-05T15:11:16.130Z,92.08
2022-11-05T15:14:00.450Z,91.99
2022-11-05T15:16:44.997Z,92.02
2022-11-05T15:19:33.150Z,92.15
2022-11-05T15:22:06.104Z,92.14
2022-11-05T15:24:35.632Z,92.21
2022-11-05T15:27:16.601Z,92.17
2022-11-05T15:29:45.622Z,92.20
2022-11-05T15:32:19.374Z,92.20
2022-11-05T15:34:53.149Z,91.97
2022-11-05T15:37:25.238Z,92.06
2022-11-05T15:39:56.537Z,92.27
2022-11-05T15:42:27.556Z,92.39
2022-11-05T15:44:58.172Z,92.58
2022-11-05T15:47:30.327Z,92.56
2022-11-05T15:50:03.259Z,92.70
2022-11-05T15:52:37.057Z,92.74
2022-11-05T15:55:22.990Z,92.95
2022-11-05T15:58:06.724Z,93.19
2022-11-05T16:00:37.181Z,93.13
2022-11-05T16:03:28.210Z,93.23
2022-11-05T16:05:57.206Z,93.37
2022-11-05T16:08:28.535Z,93.41
2022-11-05T16:11:02.986Z,93.60
2022-11-05T16:13:40.867Z,93.66
2022-11-05T16:16:21.588Z,93.77
2022-11-05T16:18:51.292Z,93.72
2022-11-05T16:21:22.731Z,93.85
2022-11-05T16:23:58.324Z,93.95
2022-11-05T16:29:22.895Z,94.04
2022-11-05T16:31:54.240Z,94.00
2022-11-05T16:34:34.077Z,94.09
2022-11-05T16:37:04.015Z,94.01
2022-11-05T16:39:33.567Z,94.13
2022-11-05T16:42:05.030Z,94.07
2022-11-05T16:44:33.989Z,94.11
2022-11-05T16:47:02.732Z,94.09
2022-11-05T16:49:34.263Z,94.23
2022-11-05T16:52:11.416Z,94.33
2022-11-05T16:54:40.591Z,94.53
2022-11-05T16:57:27.320Z,94.55
2022-11-05T16:59:57.897Z,94.64
2022-11-05T17:02:28.116Z,94.80
2022-11-05T17:04:58.071Z,95.00
2022-11-05T17:07:26.856Z,95.04
2022-11-05T17:09:57.053Z,95.11
2022-11-05T17:12:26.421Z,95.19
2022-11-05T17:14:57.610Z,95.09
2022-11-05T17:17:27.508Z,95.20
2022-11-05T17:19:56.324Z,95.24
2022-11-05T17:22:24.988Z,95.20
2022-11-05T17:24:54.238Z,95.17
2022-11-05T17:27:23.058Z,95.14
2022-11-05T17:29:52.788Z,95.14
2022-11-05T17:32:22.495Z,95.15
2022-11-05T17:34:53.797Z,95.06
2022-11-05T17:37:22.998Z,94.89
2022-11-05T17:39:52.630Z,94.71
2022-11-05T17:42:22.589Z,94.72
2022-11-05T17:44:51.369Z,94.72
2022-11-05T17:47:20.287Z,94.66
2022-11-05T17:49:49.274Z,94.35
2022-11-05T17:52:18.803Z,94.33
2022-11-05T17:54:47.747Z,94.38
2022-11-05T17:57:18.018Z,94.48
2022-11-05T17:59:47.240Z,94.44
2022-11-05T18:02:16.151Z,94.45
2022-11-05T18:04:45.442Z,94.47
2022-11-05T18:07:15.063Z,94.44
2022-11-05T18:09:44.914Z,94.45
2022-11-05T18:12:14.109Z,94.32
2022-11-05T18:14:43.316Z,94.21
2022-11-05T18:17:15.372Z,94.29
2022-11-05T18:19:47.262Z,94.17
2022-11-05T18:22:19.473Z,94.16
2022-11-05T18:24:50.517Z,94.01
2022-11-05T18:27:24.009Z,94.04
2022-11-05T18:29:54.331Z,94.00
2022-11-05T18:32:23.704Z,94.03
2022-11-05T18:34:54.673Z,93.94
2022-11-05T18:37:27.329Z,93.97
2022-11-05T18:39:57.412Z,93.99
2022-11-05T18:42:26.198Z,93.87
2022-11-05T18:44:56.242Z,93.87
2022-11-05T18:47:27.096Z,93.78
2022-11-05T18:49:58.138Z,93.78
2022-11-05T18:52:28.567Z,93.57
2022-11-05T18:54:58.977Z,93.65
2022-11-05T18:57:28.091Z,93.55
2022-11-05T18:59:59.443Z,93.54
2022-11-05T19:02:28.456Z,93.67
2022-11-05T19:07:29.369Z,93.64
2022-11-05T19:09:59.211Z,93.60
2022-11-05T19:12:28.982Z,93.50
2022-11-05T19:15:02.383Z,93.51
2022-11-05T19:17:32.101Z,93.53
2022-11-05T19:20:01.647Z,93.50
2022-11-05T19:22:32.570Z,93.62
2022-11-05T19:25:01.892Z,93.49
2022-11-05T19:27:31.746Z,93.58
2022-11-05T19:30:01.377Z,93.61
2022-11-05T19:32:33.085Z,93.45
2022-11-05T19:35:03.029Z,93.32
2022-11-05T19:37:32.212Z,93.35
2022-11-05T19:40:01.191Z,93.46
2022-11-05T19:42:31.603Z,93.47
2022-11-05T19:45:23.137Z,93.48
2022-11-05T19:47:31.678Z,93.54
2022-11-05T19:50:01.030Z,93.52
2022-11-05T19:52:31.222Z,93.52
2022-11-05T19:55:00.866Z,93.50
2022-11-05T19:57:30.159Z,93.47
2022-11-05T20:00:00.521Z,93.52
2022-11-05T20:02:30.278Z,93.55
2022-11-05T20:04:59.177Z,93.57
2022-11-05T20:07:29.447Z,93.58
2022-11-05T20:09:59.412Z,93.65
2022-11-05T20:12:30.117Z,93.55
2022-11-05T20:14:59.128Z,93.63
2022-11-05T20:17:29.701Z,93.71
2022-11-05T20:19:58.820Z,93.65
2022-11-05T20:22:28.541Z,93.53
2022-11-05T20:24:58.046Z,93.61
2022-11-05T20:27:27.107Z,93.52
2022-11-05T20:29:56.860Z,93.55
2022-11-05T20:32:28.891Z,93.48
2022-11-05T20:34:58.897Z,93.45
2022-11-05T20:37:29.573Z,93.46
2022-11-05T20:39:58.652Z,93.48
2022-11-05T20:42:28.300Z,93.43
2022-11-05T20:45:00.245Z,93.37
2022-11-05T20:47:31.105Z,93.32
2022-11-05T20:50:01.033Z,93.29
2022-11-05T20:52:31.791Z,93.37
2022-11-05T20:55:07.184Z,93.45
2022-11-05T20:57:38.330Z,93.37
2022-11-05T21:00:09.113Z,93.26
2022-11-05T21:02:39.471Z,93.10
2022-11-05T21:05:12.114Z,93.12
2022-11-05T21:07:42.493Z,93.06
2022-11-05T21:10:15.363Z,93.08
2022-11-05T21:12:44.674Z,92.99
2022-11-05T21:15:14.819Z,92.86
2022-11-05T21:17:45.143Z,92.89
2022-11-05T21:20:13.971Z,92.55
2022-11-05T21:22:45.741Z,92.51
2022-11-05T21:25:14.646Z,92.39
2022-11-05T21:27:43.943Z,92.38
2022-11-05T21:30:14.780Z,92.48
2022-11-05T21:32:47.011Z,92.53
2022-11-05T21:35:18.153Z,92.43
2022-11-05T21:37:47.657Z,92.53
2022-11-05T21:40:17.417Z,92.49
2022-11-05T21:42:49.371Z,92.53
2022-11-05T21:45:20.052Z,92.49
2022-11-05T21:47:50.751Z,92.50
2022-11-05T21:50:22.229Z,92.39
2022-11-05T21:53:10.017Z,92.32
2022-11-05T21:56:00.641Z,92.32
2022-11-05T21:58:35.111Z,92.39
2022-11-05T22:01:04.971Z,92.45
2022-11-05T22:03:33.862Z,92.54
2022-11-05T22:06:05.507Z,92.44
2022-11-05T22:08:35.554Z,92.45
2022-11-05T22:11:06.414Z,92.58
2022-11-05T22:13:36.783Z,92.73
2022-11-05T22:16:07.869Z,92.79
2022-11-05T22:18:37.041Z,92.79
2022-11-05T22:21:07.023Z,92.71
2022-11-05T22:23:35.962Z,92.77
2022-11-05T22:26:06.495Z,92.74
2022-11-05T22:28:36.658Z,92.69
2022-11-05T22:31:14.644Z,92.70
2022-11-05T22:33:45.030Z,92.63
2022-11-05T22:36:13.800Z,92.58
2022-11-05T22:38:44.057Z,92.64
2022-11-05T22:41:18.936Z,92.74
2022-11-05T22:43:50.104Z,92.70
2022-11-05T22:46:24.781Z,92.79
2022-11-05T22:48:54.200Z,92.93
2022-11-05T22:51:27.804Z,93.02
2022-11-05T22:53:56.811Z,93.08
2022-11-05T22:56:30.659Z,92.85
2022-11-05T22:59:00.241Z,92.77
2022-11-05T23:01:29.477Z,92.85
2022-11-05T23:03:59.426Z,92.84
2022-11-05T23:06:50.643Z,92.89
2022-11-05T23:09:42.240Z,93.12
2022-11-05T23:12:37.914Z,93.27
2022-11-05T23:15:08.473Z,93.16
2022-11-05T23:17:56.132Z,92.97
2022-11-05T23:20:35.154Z,92.92
2022-11-05T23:23:22.607Z,92.84
2022-11-05T23:25:53.396Z,92.79
2022-11-05T23:28:22.997Z,92.72
2022-11-05T23:31:11.676Z,92.66
2022-11-05T23:33:41.409Z,92.60
2022-11-05T23:36:30.961Z,92.63
2022-11-05T23:39:01.476Z,92.63
2022-11-05T23:41:50.111Z,92.61
2022-11-05T23:44:39.809Z,92.58
2022-11-05T23:47:27.390Z,92.43
2022-11-05T23:49:56.681Z,92.23
2022-11-05T23:52:26.298Z,92.23
2022-11-05T23:54:56.350Z,92.16
2022-11-05T23:57:25.670Z,92.17
2022-11-05T23:59:54.724Z,92.20
